KMHL/MHL METAR and TAF weather

Enter ICAO airport designator
Station Type Date Time Source
KMHL METAR 2020/09/22 04:15 UTC NOAA

KMHL 220415Z AUTO 00000KT 10SM CLR 15/13 A3021 RMK AO2


Station Type Date Time Source
KMHL Decoded METAR 2020/09/22 04:15 UTC NOAA

Station name not available
Sep 22, 2020 - 12:15 AM EDT / 2020.09.22 0415 UTC
Wind: Calm:0
Visibility: 10 mile(s):0
Sky conditions: clear
Temperature: 59 F (15 C)
Dew Point: 55 F (13 C)
Relative Humidity: 87%
Pressure (altimeter): 30.21 in. Hg (1023 hPa)
ob: KMHL 220415Z AUTO 00000KT 10SM CLR 15/13 A3021 RMK AO2
cycle: 4

Station Type Date Time Source
KMHL TAF UTC NOAA

Error!

Example: see airport list